Data for 09/18/2005

Time Sea-Level Adjusted Pressure Absolute Pressure Temperature Relative Humidity Dew Point   
(mb) (inHg) (mb) (inHg) (C) (F) (%) (C) (F)
00:05 1020 30.12 849 25.07 7.4 45.3 93 6.3 43.3
00:10 1020 30.12 849 25.07 7.4 45.3 93 6.3 43.3
00:15 1020 30.12 849 25.07 7.4 45.3 93 6.4 43.5
00:20 1019 30.09 849 25.07 7.4 45.4 94 6.5 43.7
00:25 1019 30.09 849 25.07 7.3 45.1 95 6.5 43.7
00:30 1019 30.09 849 25.07 7.3 45.1 94 6.4 43.5
00:35 1019 30.09 849 25.07 7.3 45.1 95 6.5 43.8
00:40 1019 30.09 849 25.07 7.3 45.1 95 6.6 43.8
00:45 1019 30.09 849 25.07 7.3 45.2 94 6.5 43.6
00:50 1019 30.09 849 25.07 7.3 45.1 94 6.4 43.5
00:55 1019 30.09 849 25.07 7.3 45.1 94 6.4 43.5
01:00 1019 30.09 849 25.07 7.2 45 94 6.3 43.3
01:05 1019 30.09 848 25.04 7.3 45.2 94 6.4 43.6
01:10 1019 30.09 848 25.04 7.3 45.1 95 6.5 43.7
01:15 1019 30.09 848 25.04 7.2 45 95 6.5 43.7
01:20 1019 30.09 848 25.04 7.1 44.9 94 6.2 43.2
01:25 1019 30.09 848 25.04 7.2 45 92 6.1 42.9
01:30 1019 30.09 848 25.04 7.2 44.9 93 6.1 43
01:35 1019 30.09 848 25.04 7.3 45.1 91 6 42.7
01:40 1019 30.09 848 25.04 7.2 44.9 92 6 42.8
01:45 1019 30.09 848 25.04 7.2 44.9 93 6.1 43
01:50 1019 30.09 848 25.04 7 44.6 95 6.3 43.3
01:55 1019 30.09 848 25.04 6.9 44.5 96 6.3 43.4
02:00 1019 30.09 848 25.04 6.8 44.3 96 6.2 43.1
02:05 1019 30.09 848 25.04 6.9 44.3 95 6.1 42.9
02:10 1019 30.09 848 25.04 6.9 44.3 94 6 42.8
02:15 1019 30.09 848 25.04 7 44.7 94 6.1 43
02:20 1019 30.09 848 25.04 7.2 44.9 92 6 42.8
02:25 1019 30.09 848 25.04 7 44.5 93 6 42.8
02:30 1019 30.09 848 25.04 6.8 44.2 94 5.9 42.6
02:35 1019 30.09 848 25.04 6.8 44.2 95 6 42.7
02:40 1019 30.09 848 25.04 6.7 44.1 94 5.8 42.4
02:45 1019 30.09 848 25.04 6.8 44.2 93 5.7 42.3
02:50 1019 30.09 848 25.04 6.8 44.2 93 5.7 42.3
02:55 1019 30.09 848 25.04 6.9 44.5 92 5.7 42.2
03:00 1019 30.09 848 25.04 7 44.7 91 5.7 42.2
03:05 1019 30.09 848 25.04 7.2 44.9 90 5.7 42.3
03:10 1019 30.09 848 25.04 7.2 45 90 5.7 42.2
03:15 1019 30.09 848 25.04 7.2 45 91 5.8 42.4
03:20 1019 30.09 848 25.04 7.3 45.1 90 5.8 42.4
03:25 1019 30.09 848 25.04 7 44.6 93 6 42.8
03:30 1019 30.09 848 25.04 6.7 44.1 93 5.6 42.2
03:35 1019 30.09 848 25.04 6.7 44 92 5.5 41.8
03:40 1019 30.09 848 25.04 6.8 44.3 92 5.6 42
03:45 1019 30.09 848 25.04 6.7 44.1 92 5.6 42.1
03:50 1019 30.09 848 25.04 6.7 44 92 5.5 41.9
03:55 1019 30.09 848 25.04 6.8 44.2 90 5.3 41.5
04:00 1019 30.09 848 25.04 6.9 44.5 90 5.4 41.7
04:05 1019 30.09 848 25.04 7 44.6 91 5.6 42.1
04:10 1019 30.09 848 25.04 7 44.6 90 5.5 41.8
04:15 1019 30.09 848 25.04 7.1 44.7 89 5.4 41.7
04:20 1019 30.09 848 25.04 7.1 44.8 89 5.4 41.7
04:25 1019 30.09 848 25.04 7.2 44.9 90 5.6 42
04:30 1019 30.09 848 25.04 7.2 44.9 90 5.6 42.1
04:35 1019 30.09 848 25.04 7.3 45.1 91 5.8 42.5
04:40 1019 30.09 848 25.04 7.3 45.2 91 6 42.8
04:45 1019 30.09 848 25.04 7.2 44.9 92 6 42.7
04:50 1019 30.09 848 25.04 6.8 44.3 94 6 42.7
04:55 1019 30.09 848 25.04 6.8 44.2 95 5.9 42.7
05:00 1019 30.09 848 25.04 6.8 44.2 95 6 42.9
05:05 1019 30.09 848 25.04 6.8 44.2 95 6.1 42.9
05:10 1019 30.09 848 25.04 6.7 44.1 96 6.1 43
05:15 1019 30.09 848 25.04 6.6 43.9 97 6.1 43
05:20 1019 30.09 848 25.04 6.6 43.9 97 6.1 43
05:25 1019 30.09 848 25.04 6.8 44.2 96 6.2 43.2
05:30 1019 30.09 848 25.04 7 44.6 94 6.2 43.1
05:35 1019 30.09 848 25.04 6.9 44.5 95 6.2 43.1
05:40 1019 30.09 848 25.04 6.9 44.5 94 6.1 43
05:45 1019 30.09 848 25.04 7.1 44.7 94 6.2 43.2
05:50 1019 30.09 848 25.04 7 44.5 95 6.2 43.1
05:55 1019 30.09 848 25.04 6.9 44.5 95 6.1 43
06:00 1019 30.09 848 25.04 7.1 44.8 93 6 42.8
06:05 1019 30.09 848 25.04 7.3 45.1 91 5.9 42.6
06:10 1019 30.09 848 25.04 7.3 45.1 91 6 42.8
06:15 1019 30.09 849 25.07 7.3 45.2 93 6.3 43.3
06:20 1019 30.09 849 25.07 7.1 44.8 94 6.2 43.2
06:25 1019 30.09 849 25.07 7.2 44.9 93 6.2 43.1
06:30 1019 30.09 849 25.07 7.2 45 93 6.1 43
06:35 1019 30.09 849 25.07 7.2 45 92 6.1 42.9
06:40 1020 30.12 849 25.07 7.2 45 93 6.2 43.1
06:45 1020 30.12 849 25.07 7 44.7 95 6.3 43.3
06:50 1020 30.12 849 25.07 6.8 44.3 95 6.1 42.9
06:55 1020 30.12 849 25.07 6.8 44.3 95 6 42.8
07:00 1020 30.12 849 25.07 6.9 44.5 95 6.2 43.1
07:05 1020 30.12 849 25.07 7.1 44.7 94 6.1 43
07:10 1020 30.12 849 25.07 7.2 45 93 6.2 43.2
07:15 1020 30.12 849 25.07 7.2 45 93 6.2 43.1
07:20 1020 30.12 849 25.07 7.2 44.9 92 6 42.9
07:25 1020 30.12 849 25.07 7.2 45 92 6 42.8
07:30 1020 30.12 849 25.07 7.2 45 90 5.7 42.3
07:35 1020 30.12 849 25.07 7.3 45.1 91 5.9 42.7
07:40 1020 30.12 849 25.07 7.4 45.2 92 6.1 43
07:45 1020 30.12 849 25.07 7.5 45.5 92 6.2 43.2
07:50 1020 30.12 849 25.07 7.6 45.7 93 6.5 43.6
07:55 1020 30.12 849 25.07 7.6 45.6 94 6.6 43.9
08:00 1020 30.12 849 25.07 7.5 45.5 94 6.6 44
08:05 1020 30.12 849 25.07 7.5 45.5 95 6.8 44.2
08:10 1020 30.12 850 25.1 7.6 45.8 94 6.7 44.1
08:15 1020 30.12 850 25.1 7.8 46 92 6.6 43.9
08:20 1020 30.12 850 25.1 7.9 46.2 91 6.6 43.8
08:25 1020 30.12 850 25.1 7.9 46.2 91 6.6 43.8
08:30 1020 30.12 850 25.1 8 46.3 91 6.6 43.8
08:35 1020 30.12 850 25.1 8.1 46.6 88 6.2 43.2
08:40 1020 30.12 850 25.1 8.2 46.8 88 6.4 43.5
08:45 1020 30.12 850 25.1 8.1 46.6 91 6.8 44.3
08:50 1021 30.15 850 25.1 7.9 46.2 92 6.7 44.1
08:55 1021 30.15 850 25.1 7.9 46.2 93 6.9 44.4
09:00 1021 30.15 850 25.1 8 46.5 94 7.1 44.7
09:05 1021 30.15 850 25.1 7.9 46.2 93 6.9 44.5
09:10 1021 30.15 850 25.1 8.1 46.5 94 7.1 44.8
09:15 1021 30.15 850 25.1 8.2 46.7 92 7 44.6
09:20 1021 30.15 850 25.1 8.3 47 89 6.6 43.8
09:25 1021 30.15 850 25.1 8.4 47.1 86 6.3 43.3
09:30 1021 30.15 850 25.1 8.5 47.3 87 6.4 43.5
09:35 1021 30.15 850 25.1 8.8 47.9 83 6.2 43.1
09:40 1021 30.15 850 25.1 9.2 48.5 81 6.2 43.1
09:45 1021 30.15 850 25.1 9.5 49.2 79 6.1 43.1
09:50 1021 30.15 850 25.1 9.7 49.5 79 6.3 43.4
09:55 1021 30.15 850 25.1 9.6 49.4 81 6.5 43.7
10:00 1021 30.15 850 25.1 9.6 49.2 81 6.5 43.6
10:05 1021 30.15 850 25.1 9.5 49.1 83 6.7 44
10:10 1021 30.15 850 25.1 9.1 48.3 84 6.6 43.9
10:15 1021 30.15 850 25.1 8.8 47.9 84 6.2 43.2
10:20 1021 30.15 850 25.1 9.1 48.3 83 6.3 43.3
10:25 1021 30.15 850 25.1 9.6 49.3 83 6.8 44.2
10:30 1021 30.15 850 25.1 10.6 51.1 76 6.6 43.9
10:35 1021 30.15 850 25.1 10.7 51.2 80 7.3 45.2
10:40 1021 30.15 850 25.1 11 51.7 73 6.3 43.4
10:45 1021 30.15 850 25.1 10.4 50.7 76 6.3 43.4
10:50 1021 30.15 850 25.1 10.5 50.9 77 6.7 44.1
10:55 1021 30.15 850 25.1 11 51.9 77 7.1 44.9
11:00 1021 30.15 850 25.1 11.6 52.9 71 6.5 43.6
11:05 1021 30.15 850 25.1 11.5 52.8 72 6.7 44.1
11:10 1021 30.15 850 25.1 11.7 53 72 6.8 44.3
11:15 1021 30.15 850 25.1 11.9 53.5 68 6.2 43.2
11:20 1021 30.15 850 25.1 12.3 54.1 67 6.4 43.5
11:25 1021 30.15 850 25.1 12.2 54 67 6.4 43.6
11:30 1021 30.15 850 25.1 11.9 53.3 70 6.7 44
11:35 1021 30.15 850 25.1 11.5 52.7 71 6.4 43.5
11:40 1021 30.15 850 25.1 11.7 53.1 66 5.6 42.1
11:45 1021 30.15 850 25.1 11.9 53.3 70 6.5 43.7
11:50 1021 30.15 850 25.1 12.8 55 61 5.5 41.8
11:55 1021 30.15 850 25.1 12.4 54.3 66 6.2 43.1
12:00 1021 30.15 850 25.1 12.6 54.7 59 4.9 40.8
12:05 1021 30.15 850 25.1 13 55.4 59 5.2 41.4
12:10 1021 30.15 850 25.1 13.4 56 58 5.3 41.6
12:15 1021 30.15 850 25.1 12.6 54.6 63 5.8 42.4
12:20 1021 30.15 850 25.1 12.1 53.7 62 5.2 41.3
12:25 1021 30.15 850 25.1 13.4 56 55 4.6 40.3
12:30 1021 30.15 850 25.1 14.1 57.4 53 4.8 40.6
12:35 1021 30.15 850 25.1 14.5 58.1 54 5.3 41.5
12:40 1021 30.15 850 25.1 14.4 57.8 54 5.3 41.6
12:45 1021 30.15 850 25.1 14 57.2 55 5.2 41.4
12:50 1021 30.15 850 25.1 14 57.3 54 4.8 40.7
12:55 1021 30.15 850 25.1 14.8 58.6 52 5.2 41.4
13:00 1021 30.15 850 25.1 14.3 57.8 55 5.4 41.7
13:05 1021 30.15 850 25.1 14.7 58.5 52 5.1 41.1
13:10 1021 30.15 850 25.1 14.9 58.8 53 5.4 41.7
13:15 1021 30.15 850 25.1 14.6 58.2 53 5.1 41.2
13:20 1021 30.15 850 25.1 14.9 58.8 50 4.6 40.2
13:25 1021 30.15 850 25.1 15.3 59.5 48 4.5 40.1
13:30 1021 30.15 850 25.1 15.6 60.1 51 5.5 41.9
13:35 1021 30.15 850 25.1 15.1 59.2 50 4.8 40.6
13:40 1021 30.15 850 25.1 15.3 59.5 49 4.8 40.6
13:45 1021 30.15 850 25.1 14.9 58.9 50 4.6 40.2
13:50 1021 30.15 850 25.1 15.1 59.2 48 4.1 39.5
13:55 1020 30.12 850 25.1 15.7 60.2 49 5 40.9
14:00 1020 30.12 850 25.1 15.8 60.4 49 5.1 41.1
14:05 1020 30.12 850 25.1 16.4 61.5 44 4.4 39.8
14:10 1020 30.12 850 25.1 16.3 61.4 45 4.4 39.9
14:15 1020 30.12 850 25.1 16.2 61.2 45 4.3 39.7
14:20 1020 30.12 850 25.1 15.8 60.4 47 4.4 40
14:25 1020 30.12 850 25.1 15.3 59.5 49 4.6 40.2
14:30 1020 30.12 849 25.07 15 59.1 50 4.7 40.5
14:35 1020 30.12 849 25.07 15.1 59.3 50 4.9 40.8
14:40 1020 30.12 849 25.07 15.4 59.8 48 4.5 40.1
14:45 1020 30.12 849 25.07 15.9 60.6 45 4.2 39.6
14:50 1020 30.12 849 25.07 16.5 61.6 45 4.7 40.5
14:55 1020 30.12 849 25.07 16.1 60.9 46 4.6 40.2
15:00 1020 30.12 849 25.07 16 60.8 44 3.9 38.9
15:05 1020 30.12 849 25.07 15.8 60.4 46 4.3 39.7
15:10 1020 30.12 849 25.07 15.4 59.6 47 4.1 39.4
15:15 1020 30.12 849 25.07 15.1 59.1 47 4 39.2
15:20 1020 30.12 849 25.07 14.8 58.6 49 4.2 39.5
15:25 1020 30.12 849 25.07 15.8 60.5 43 3.5 38.3
15:30 1020 30.12 849 25.07 15.8 60.4 46 4.3 39.7
15:35 1020 30.12 849 25.07 15.5 59.8 47 4.3 39.8
15:40 1020 30.12 849 25.07 15 59 48 4.1 39.4
15:45 1020 30.12 849 25.07 15.2 59.3 48 4.2 39.6
15:50 1020 30.12 849 25.07 16 60.9 44 3.9 39
15:55 1020 30.12 849 25.07 16.8 62.3 42 4 39.1
16:00 1020 30.12 849 25.07 16.9 62.4 41 3.7 38.6
16:05 1020 30.12 849 25.07 16.6 61.8 43 4.2 39.6
16:10 1020 30.12 849 25.07 16.2 61.2 45 4.4 39.9
16:15 1020 30.12 849 25.07 16 60.7 45 4.2 39.6
16:20 1020 30.12 849 25.07 16.2 61.2 45 4.4 39.9
16:25 1020 30.12 849 25.07 15.9 60.7 44 3.8 38.9
16:30 1020 30.12 849 25.07 15.9 60.7 45 4.1 39.5
16:35 1020 30.12 849 25.07 16.2 61.1 43 3.8 38.8
16:40 1020 30.12 849 25.07 16.3 61.4 41 3.2 37.8
16:45 1020 30.12 849 25.07 16.5 61.8 41 3.3 37.9
16:50 1020 30.12 849 25.07 16.2 61.2 42 3.4 38.1
16:55 1020 30.12 849 25.07 15.7 60.3 44 3.6 38.5
17:00 1020 30.12 849 25.07 15.4 59.6 46 3.9 39
17:05 1020 30.12 849 25.07 15.3 59.5 44 3.3 38
17:10 1020 30.12 849 25.07 15.4 59.7 43 3.1 37.6
17:15 1020 30.12 849 25.07 15.3 59.5 42 2.7 36.8
17:20 1020 30.12 849 25.07 15 59 44 2.8 37
17:25 1020 30.12 849 25.07 15.1 59.1 44 3.2 37.7
17:30 1020 30.12 849 25.07 15.1 59.3 44 3 37.4
17:35 1020 30.12 850 25.1 15.2 59.3 44 2.9 37.3
17:40 1020 30.12 850 25.1 15.1 59.2 44 3.1 37.5
17:45 1020 30.12 850 25.1 15.1 59.2 45 3.4 38.1
17:50 1020 30.12 850 25.1 15 59 46 3.6 38.5
17:55 1020 30.12 850 25.1 14.8 58.6 48 3.9 39.1
18:00 1020 30.12 850 25.1 14.8 58.6 48 3.9 39
18:05 1020 30.12 850 25.1 14.6 58.2 47 3.6 38.4
18:10 1020 30.12 850 25.1 14.4 57.9 48 3.6 38.6
18:15 1020 30.12 850 25.1 14.2 57.6 49 3.8 38.8
18:20 1020 30.12 850 25.1 14.4 57.8 48 3.7 38.7
18:25 1020 30.12 850 25.1 14.4 57.8 49 3.9 39
18:30 1021 30.15 850 25.1 14.6 58.2 50 4.3 39.7
18:35 1021 30.15 850 25.1 14.8 58.7 50 4.5 40.2
18:40 1021 30.15 850 25.1 14.6 58.3 54 5.4 41.7
18:45 1021 30.15 850 25.1 14.2 57.6 55 5.3 41.5
18:50 1021 30.15 850 25.1 14.3 57.8 51 4.5 40.2
18:55 1021 30.15 850 25.1 14.4 57.9 53 4.9 40.8
19:00 1021 30.15 850 25.1 14.4 57.9 50 4.2 39.5
19:05 1021 30.15 850 25.1 14.4 57.9 52 4.7 40.4
19:10 1021 30.15 850 25.1 14.3 57.7 53 4.8 40.7
19:15 1021 30.15 850 25.1 14.1 57.3 53 4.6 40.3
19:20 1021 30.15 850 25.1 13.8 56.8 52 4.2 39.6
19:25 1021 30.15 850 25.1 13.7 56.6 53 4.2 39.6
19:30 1021 30.15 850 25.1 13.5 56.3 53 4.2 39.5
19:35 1021 30.15 850 25.1 13.4 56.1 53 4.1 39.3
19:40 1021 30.15 850 25.1 13.4 56.2 53 4.1 39.3
19:45 1021 30.15 850 25.1 13.4 56.2 53 4.1 39.5
19:50 1021 30.15 850 25.1 13.3 55.9 54 4.3 39.7
19:55 1021 30.15 850 25.1 13.1 55.6 55 4.4 39.9
20:00 1021 30.15 850 25.1 13 55.4 56 4.4 40
20:05 1021 30.15 850 25.1 12.7 54.9 58 4.8 40.7
20:10 1021 30.15 850 25.1 11.9 53.4 60 4.5 40
20:15 1021 30.15 850 25.1 11.5 52.7 62 4.5 40.1
20:20 1021 30.15 850 25.1 11.3 52.3 65 5 40.9
20:25 1021 30.15 850 25.1 10.8 51.4 68 5.1 41.2
20:30 1021 30.15 850 25.1 10.5 50.8 68 4.9 40.8
20:35 1021 30.15 850 25.1 10.3 50.6 68 4.7 40.4
20:40 1021 30.15 850 25.1 10.1 50.2 69 4.8 40.6
20:45 1021 30.15 850 25.1 9.8 49.6 70 4.6 40.3
20:50 1021 30.15 850 25.1 9.6 49.3 70 4.4 39.9
20:55 1021 30.15 850 25.1 9.6 49.2 69 4.2 39.6
21:00 1021 30.15 850 25.1 9.5 49.1 70 4.3 39.7
21:05 1021 30.15 850 25.1 9.4 48.8 71 4.4 39.9
21:10 1021 30.15 850 25.1 9.2 48.5 72 4.4 39.9
21:15 1021 30.15 850 25.1 9.1 48.4 72 4.3 39.7
21:20 1021 30.15 850 25.1 9.1 48.4 72 4.3 39.8
21:25 1021 30.15 850 25.1 9 48.2 73 4.4 39.9
21:30 1021 30.15 850 25.1 8.8 47.9 73 4.2 39.6
21:35 1021 30.15 850 25.1 8.7 47.6 73 4.1 39.3
21:40 1021 30.15 851 25.13 8.6 47.5 73 4.1 39.3
21:45 1021 30.15 851 25.13 8.7 47.7 72 4 39.1
21:50 1021 30.15 851 25.13 8.6 47.6 73 4 39.2
21:55 1021 30.15 851 25.13 8.6 47.6 73 4 39.2
22:00 1021 30.15 851 25.13 8.6 47.4 72 3.9 39
22:05 1021 30.15 851 25.13 8.5 47.2 73 3.9 39
22:10 1021 30.15 851 25.13 8 46.5 75 3.9 39.1
22:15 1022 30.18 851 25.13 7.6 45.8 76 3.7 38.7
22:20 1022 30.18 851 25.13 7.5 45.6 76 3.6 38.5
22:25 1022 30.18 851 25.13 7.5 45.6 75 3.5 38.2
22:30 1022 30.18 851 25.13 7.6 45.7 74 3.3 38
22:35 1022 30.18 851 25.13 7.7 45.9 74 3.3 38
22:40 1022 30.18 851 25.13 7.7 45.9 74 3.3 38
22:45 1022 30.18 851 25.13 7.7 45.9 73 3.3 37.9
22:50 1022 30.18 851 25.13 7.8 46 72 3.1 37.6
22:55 1022 30.18 851 25.13 7.9 46.2 72 3.1 37.7
23:00 1022 30.18 851 25.13 7.9 46.2 72 3.2 37.7
23:05 1022 30.18 851 25.13 7.9 46.2 72 3.1 37.7
23:10 1022 30.18 851 25.13 7.7 45.9 72 3 37.4
23:15 1022 30.18 851 25.13 7.6 45.7 73 3 37.4
23:20 1022 30.18 851 25.13 7.5 45.6 72 2.9 37.2
23:25 1022 30.18 851 25.13 7.3 45.2 73 2.9 37.2
23:30 1022 30.18 851 25.13 7.1 44.8 74 2.8 37
23:35 1022 30.18 851 25.13 7.1 44.8 73 2.6 36.7
23:40 1022 30.18 851 25.13 7.1 44.8 72 2.4 36.4
23:45 1022 30.18 851 25.13 7.2 45 71 2.3 36.1
23:50 1022 30.18 851 25.13 7.5 45.5 70 2.4 36.3
23:55 1022 30.18 851 25.13 7.5 45.6 71 2.5 36.6
24:00 1022 30.18 851 25.13 7.4 45.3 71 2.4 36.3